createdAt,value
2022-10-17T00:00:06.539Z,6.72
2022-10-17T00:02:33.274Z,8.88
2022-10-17T00:04:59.956Z,12.13
2022-10-17T00:07:26.972Z,9.05
2022-10-17T00:09:53.924Z,12.05
2022-10-17T00:12:20.715Z,15.25
2022-10-17T00:14:47.455Z,9.75
2022-10-17T00:17:16.543Z,10.85
2022-10-17T00:19:43.251Z,10.63
2022-10-17T00:22:12.232Z,12.57
2022-10-17T00:24:38.974Z,13.10
2022-10-17T00:27:05.801Z,12.27
2022-10-17T00:29:32.702Z,10.18
2022-10-17T00:32:01.768Z,12.20
2022-10-17T00:34:31.122Z,9.45
2022-10-17T00:36:58.424Z,9.23
2022-10-17T00:39:25.335Z,11.95
2022-10-17T00:41:52.026Z,13.15
2022-10-17T00:44:31.055Z,12.80
2022-10-17T00:46:59.406Z,10.95
2022-10-17T00:49:30.806Z,10.38
2022-10-17T00:52:04.683Z,14.40
2022-10-17T00:54:35.526Z,13.07
2022-10-17T00:57:05.249Z,13.68
2022-10-17T00:59:35.793Z,15.30
2022-10-17T01:02:15.925Z,17.08
2022-10-17T01:04:48.501Z,15.35
2022-10-17T01:07:15.464Z,15.80
2022-10-17T01:09:43.397Z,14.45
2022-10-17T01:12:19.228Z,12.63
2022-10-17T01:14:51.913Z,14.63
2022-10-17T01:17:21.804Z,17.17
2022-10-17T01:20:09.771Z,16.08
2022-10-17T01:22:41.387Z,14.50
2022-10-17T01:28:30.758Z,15.50
2022-10-17T01:31:15.574Z,15.60
2022-10-17T01:33:53.756Z,14.73
2022-10-17T01:36:45.014Z,17.20
2022-10-17T01:39:14.482Z,18.25
2022-10-17T01:41:52.240Z,16.67
2022-10-17T01:44:32.369Z,18.33
2022-10-17T01:47:05.443Z,17.05
2022-10-17T01:49:34.963Z,18.40
2022-10-17T01:52:08.007Z,17.27
2022-10-17T01:54:42.752Z,16.60
2022-10-17T01:57:16.847Z,25.35
2022-10-17T01:59:51.179Z,19.05
2022-10-17T02:02:19.006Z,19.60
2022-10-17T02:04:47.469Z,18.17
2022-10-17T02:07:16.819Z,19.45
2022-10-17T02:09:43.678Z,20.73
2022-10-17T02:12:25.837Z,19.40
2022-10-17T02:15:37.193Z,18.48
2022-10-17T02:18:20.340Z,17.13
2022-10-17T02:20:59.253Z,16.63
2022-10-17T02:23:44.265Z,21.30
2022-10-17T02:26:25.838Z,17.83
2022-10-17T02:29:11.785Z,20.58
2022-10-17T02:31:43.285Z,18.83
2022-10-17T02:34:16.248Z,16.88
2022-10-17T02:36:48.747Z,23.60
2022-10-17T02:39:16.643Z,17.55
2022-10-17T02:41:44.467Z,15.57
2022-10-17T02:44:11.742Z,20.20
2022-10-17T02:46:41.498Z,17.70
2022-10-17T02:49:23.220Z,18.70
2022-10-17T02:54:31.800Z,15.85
2022-10-17T02:57:08.405Z,15.45
2022-10-17T02:59:37.007Z,17.90
2022-10-17T03:02:05.891Z,18.55
2022-10-17T03:04:34.240Z,16.95
2022-10-17T03:07:00.955Z,16.83
2022-10-17T03:09:29.937Z,15.88
2022-10-17T03:11:56.664Z,19.05
2022-10-17T03:14:25.805Z,17.20
2022-10-17T03:16:54.982Z,17.38
2022-10-17T03:19:21.741Z,20.33
2022-10-17T03:21:48.462Z,16.42
2022-10-17T03:24:15.287Z,15.50
2022-10-17T03:29:16.938Z,13.73
2022-10-17T03:31:45.823Z,21.38
2022-10-17T03:34:12.597Z,14.52
2022-10-17T03:36:39.545Z,19.02
2022-10-17T03:39:06.278Z,19.58
2022-10-17T03:41:35.402Z,17.80
2022-10-17T03:44:02.178Z,16.23
2022-10-17T03:46:29.037Z,17.67
2022-10-17T03:48:55.744Z,16.48
2022-10-17T03:51:22.532Z,21.42
2022-10-17T03:53:49.256Z,20.60
2022-10-17T03:56:19.549Z,16.92
2022-10-17T03:58:46.682Z,17.60
2022-10-17T04:01:15.307Z,18.95
2022-10-17T04:03:42.907Z,17.27
2022-10-17T04:06:14.030Z,18.50
2022-10-17T04:08:42.960Z,16.95
2022-10-17T04:11:13.513Z,17.42
2022-10-17T04:13:40.805Z,17.08
2022-10-17T04:16:10.776Z,17.55
2022-10-17T04:18:37.523Z,15.07
2022-10-17T04:21:05.777Z,19.77
2022-10-17T04:23:32.687Z,15.25
2022-10-17T04:26:00.508Z,14.40
2022-10-17T04:28:28.179Z,14.88
2022-10-17T04:31:02.535Z,18.25
2022-10-17T04:33:29.374Z,16.23
2022-10-17T04:36:01.008Z,14.98
2022-10-17T04:40:58.443Z,15.60
2022-10-17T04:43:25.138Z,18.55
2022-10-17T04:45:54.201Z,16.23
2022-10-17T04:48:21.026Z,19.88
2022-10-17T04:50:58.021Z,14.07
2022-10-17T04:53:25.410Z,13.15
2022-10-17T04:55:52.522Z,13.55
2022-10-17T04:58:19.457Z,17.40
2022-10-17T05:00:46.435Z,13.60
2022-10-17T05:03:13.262Z,13.20
2022-10-17T05:05:41.399Z,12.63
2022-10-17T05:08:09.970Z,16.42
2022-10-17T05:10:42.053Z,14.98
2022-10-17T05:13:09.039Z,17.77
2022-10-17T05:15:36.270Z,13.75
2022-10-17T05:18:04.486Z,13.27
2022-10-17T05:20:31.177Z,15.27
2022-10-17T05:23:01.238Z,15.07
2022-10-17T05:25:28.160Z,14.15
2022-10-17T05:27:54.894Z,14.65
2022-10-17T05:30:23.793Z,14.20
2022-10-17T05:32:57.441Z,14.60
2022-10-17T05:35:24.134Z,18.85
2022-10-17T05:37:50.823Z,15.75
2022-10-17T05:40:20.805Z,17.05
2022-10-17T05:42:48.561Z,16.25
2022-10-17T05:45:15.840Z,17.02
2022-10-17T05:47:42.753Z,18.90
2022-10-17T05:50:10.143Z,13.25
2022-10-17T05:52:37.079Z,16.60
2022-10-17T05:55:05.138Z,15.10
2022-10-17T05:57:32.082Z,15.10
2022-10-17T05:59:58.984Z,15.25
2022-10-17T06:02:25.854Z,15.70
2022-10-17T06:04:54.972Z,16.08
2022-10-17T06:07:21.888Z,15.18
2022-10-17T06:09:48.588Z,16.42
2022-10-17T06:12:15.377Z,14.52
2022-10-17T06:14:44.324Z,16.52
2022-10-17T06:17:15.727Z,15.43
2022-10-17T06:19:44.733Z,15.88
2022-10-17T06:22:11.857Z,18.77
2022-10-17T06:24:38.572Z,14.05
2022-10-17T06:27:10.829Z,15.23
2022-10-17T06:29:40.889Z,16.38
2022-10-17T06:32:12.678Z,16.13
2022-10-17T06:34:41.723Z,17.17
2022-10-17T06:37:08.777Z,17.65
2022-10-17T06:39:35.933Z,15.30
2022-10-17T06:42:06.051Z,17.75
2022-10-17T06:44:32.809Z,19.33
2022-10-17T06:47:02.173Z,19.27
2022-10-17T06:49:32.398Z,14.00
2022-10-17T06:51:59.233Z,13.63
2022-10-17T06:54:26.197Z,13.32
2022-10-17T06:56:53.012Z,14.52
2022-10-17T06:59:22.014Z,12.70
2022-10-17T07:01:48.856Z,18.58
2022-10-17T07:04:17.736Z,16.05
2022-10-17T07:06:44.802Z,14.23
2022-10-17T07:09:11.656Z,13.43
2022-10-17T07:11:40.596Z,18.15
2022-10-17T07:14:09.535Z,15.52
2022-10-17T07:16:37.394Z,16.48
2022-10-17T07:19:04.124Z,19.77
2022-10-17T07:21:35.304Z,12.65
2022-10-17T07:24:08.395Z,17.23
2022-10-17T07:26:37.368Z,15.65
2022-10-17T07:29:06.363Z,15.10
2022-10-17T07:31:33.782Z,17.33
2022-10-17T07:34:00.849Z,15.38
2022-10-17T07:36:30.020Z,17.65
2022-10-17T07:38:56.927Z,15.48
2022-10-17T07:41:23.593Z,14.95
2022-10-17T07:43:52.634Z,13.48
2022-10-17T07:46:22.231Z,15.50
2022-10-17T07:48:48.918Z,14.35
2022-10-17T07:51:15.666Z,14.48
2022-10-17T07:53:46.498Z,14.63
2022-10-17T07:56:15.875Z,17.58
2022-10-17T07:58:42.804Z,15.77
2022-10-17T08:01:15.395Z,16.58
2022-10-17T08:03:44.391Z,16.52
2022-10-17T08:06:11.957Z,18.02
2022-10-17T08:08:38.641Z,16.02
2022-10-17T08:11:08.280Z,16.48
2022-10-17T08:13:36.121Z,15.35
2022-10-17T08:16:05.990Z,14.48
2022-10-17T08:18:36.201Z,17.60
2022-10-17T08:21:08.720Z,18.38
2022-10-17T08:23:36.418Z,16.98
2022-10-17T08:26:10.329Z,18.35
2022-10-17T08:28:38.787Z,16.02
2022-10-17T08:31:11.872Z,20.40
2022-10-17T08:33:38.990Z,17.98
2022-10-17T08:36:08.656Z,17.92
2022-10-17T08:38:37.609Z,19.02
2022-10-17T08:41:12.129Z,18.65
2022-10-17T08:43:50.862Z,23.67
2022-10-17T08:46:21.900Z,18.77
2022-10-17T08:48:51.570Z,19.77
2022-10-17T08:51:25.983Z,20.33
2022-10-17T08:54:05.874Z,18.83
2022-10-17T08:56:48.969Z,18.50
2022-10-17T08:59:27.677Z,19.20
2022-10-17T09:02:08.636Z,20.40
2022-10-17T09:04:38.285Z,20.40
2022-10-17T09:07:22.351Z,18.55
2022-10-17T09:10:09.954Z,21.83
2022-10-17T09:12:43.143Z,16.17
2022-10-17T09:15:48.485Z,16.85
2022-10-17T09:18:29.886Z,25.35
2022-10-17T09:21:14.790Z,20.15
2022-10-17T09:24:08.786Z,16.00
2022-10-17T09:26:39.357Z,25.27
2022-10-17T09:29:18.703Z,18.48
2022-10-17T09:32:12.199Z,19.63
2022-10-17T09:34:38.957Z,21.30
2022-10-17T09:37:15.818Z,18.52
2022-10-17T09:39:44.247Z,19.63
2022-10-17T09:42:15.666Z,18.38
2022-10-17T09:45:00.948Z,18.80
2022-10-17T09:47:39.173Z,15.15
2022-10-17T09:50:15.015Z,18.30
2022-10-17T09:52:48.713Z,16.38
2022-10-17T09:55:44.060Z,18.58
2022-10-17T09:58:12.000Z,19.80
2022-10-17T10:00:44.814Z,16.02
2022-10-17T10:03:27.552Z,16.67
2022-10-17T10:06:06.409Z,17.27
2022-10-17T10:08:37.921Z,17.60
2022-10-17T10:13:35.549Z,14.57
2022-10-17T10:16:23.130Z,17.35
2022-10-17T10:18:51.234Z,15.30
2022-10-17T10:21:21.821Z,18.05
2022-10-17T10:24:10.700Z,13.18
2022-10-17T10:26:48.307Z,11.05
2022-10-17T10:29:32.258Z,11.68
2022-10-17T10:32:21.874Z,13.13
2022-10-17T10:34:54.569Z,11.05
2022-10-17T10:37:22.737Z,6.00
2022-10-17T10:39:57.468Z,8.25
2022-10-17T10:42:34.479Z,3.95
2022-10-17T10:45:47.655Z,5.95
2022-10-17T10:48:21.608Z,4.68
2022-10-17T10:51:02.545Z,6.25
2022-10-17T10:53:53.745Z,7.40
2022-10-17T10:56:48.781Z,7.28
2022-10-17T10:59:26.154Z,6.03
2022-10-17T11:02:18.925Z,5.20
2022-10-17T11:05:00.819Z,5.60
2022-10-17T11:07:41.281Z,4.90
2022-10-17T11:10:21.910Z,4.90
2022-10-17T11:13:03.575Z,5.60
2022-10-17T11:18:08.658Z,5.28
2022-10-17T11:20:58.170Z,6.05
2022-10-17T11:23:53.202Z,6.00
2022-10-17T11:26:26.965Z,4.18
2022-10-17T11:28:58.415Z,4.82
2022-10-17T11:31:31.644Z,5.88
2022-10-17T11:34:10.391Z,7.18
2022-10-17T11:36:42.154Z,7.63
2022-10-17T11:39:27.206Z,8.18
2022-10-17T11:42:03.282Z,9.55
2022-10-17T11:44:36.346Z,10.20
2022-10-17T11:47:31.132Z,8.50
2022-10-17T11:53:13.300Z,9.60
2022-10-17T11:55:41.226Z,7.97
2022-10-17T11:58:25.421Z,7.13
2022-10-17T12:01:02.904Z,7.82
2022-10-17T12:03:48.276Z,6.97
2022-10-17T12:06:36.927Z,6.38
2022-10-17T12:09:21.741Z,8.68
2022-10-17T12:11:54.237Z,10.40
2022-10-17T12:14:43.668Z,8.35
2022-10-17T12:17:25.377Z,7.70
2022-10-17T12:22:26.449Z,6.07
2022-10-17T12:24:59.516Z,7.25
2022-10-17T12:27:50.341Z,5.95
2022-10-17T12:30:27.703Z,7.43
2022-10-17T12:33:06.542Z,6.97
2022-10-17T12:35:36.677Z,4.43
2022-10-17T12:38:14.234Z,5.22
2022-10-17T12:40:48.416Z,4.95
2022-10-17T12:43:17.920Z,4.63
2022-10-17T12:45:51.921Z,6.25
2022-10-17T12:48:34.060Z,5.10
2022-10-17T12:54:12.312Z,6.18
2022-10-17T12:56:45.204Z,8.00
2022-10-17T12:59:22.439Z,8.57
2022-10-17T13:01:53.493Z,4.65
2022-10-17T13:04:23.473Z,5.35
2022-10-17T13:06:54.984Z,7.55
2022-10-17T13:11:57.592Z,7.70
2022-10-17T13:14:26.829Z,6.28
2022-10-17T13:16:59.469Z,6.25
2022-10-17T13:19:42.159Z,6.80
2022-10-17T13:22:22.986Z,6.70
2022-10-17T13:24:53.789Z,6.53
2022-10-17T13:27:27.768Z,5.82
2022-10-17T13:29:58.846Z,6.00
2022-10-17T13:32:27.255Z,6.35
2022-10-17T13:35:31.711Z,8.40
2022-10-17T13:38:09.124Z,6.05
2022-10-17T13:40:50.133Z,8.02
2022-10-17T13:43:24.286Z,6.93
2022-10-17T13:46:02.338Z,8.82
2022-10-17T13:48:38.024Z,11.20
2022-10-17T13:51:10.297Z,7.97
2022-10-17T13:53:41.300Z,7.53
2022-10-17T13:56:29.119Z,5.15
2022-10-17T13:59:03.487Z,7.75
2022-10-17T14:01:31.129Z,5.63
2022-10-17T14:04:20.056Z,7.75
2022-10-17T14:06:49.510Z,10.13
2022-10-17T14:09:24.011Z,6.93
2022-10-17T14:12:22.020Z,6.43
2022-10-17T14:15:09.643Z,9.13
2022-10-17T14:17:39.956Z,6.28
2022-10-17T14:20:48.196Z,6.05
2022-10-17T14:23:21.936Z,8.48
2022-10-17T14:25:44.785Z,7.30
2022-10-17T14:28:12.372Z,9.10
2022-10-17T14:30:56.271Z,7.80
2022-10-17T14:33:27.710Z,8.25
2022-10-17T14:35:57.015Z,8.73
2022-10-17T14:38:25.013Z,7.95
2022-10-17T14:41:30.259Z,10.73
2022-10-17T14:43:57.969Z,8.50
2022-10-17T14:46:25.279Z,7.32
2022-10-17T14:49:04.480Z,6.90
2022-10-17T14:51:40.213Z,7.63
2022-10-17T14:54:23.741Z,6.22
2022-10-17T14:56:54.926Z,7.32
2022-10-17T14:59:52.070Z,4.68
2022-10-17T15:02:13.463Z,6.63
2022-10-17T15:04:40.577Z,8.32
2022-10-17T15:07:10.032Z,6.78
2022-10-17T15:09:36.720Z,6.85
2022-10-17T15:12:07.044Z,5.25
2022-10-17T15:14:33.730Z,10.85
2022-10-17T15:17:01.035Z,10.32
2022-10-17T15:19:27.790Z,6.47
2022-10-17T15:21:54.476Z,7.80
2022-10-17T15:24:21.158Z,6.07
2022-10-17T15:26:49.473Z,7.15
2022-10-17T15:29:16.389Z,7.43
2022-10-17T15:31:45.356Z,8.50
2022-10-17T15:34:12.124Z,7.70
2022-10-17T15:36:48.164Z,8.45
2022-10-17T15:39:14.876Z,5.88
2022-10-17T15:41:41.635Z,6.55
2022-10-17T15:44:08.471Z,11.07
2022-10-17T15:46:35.801Z,8.90
2022-10-17T15:49:05.977Z,9.23
2022-10-17T15:51:32.854Z,6.53
2022-10-17T15:54:04.873Z,9.23
2022-10-17T15:56:37.086Z,9.73
2022-10-17T15:59:18.643Z,14.38
2022-10-17T16:01:48.652Z,11.60
2022-10-17T16:04:15.976Z,10.77
2022-10-17T16:06:43.164Z,6.22
2022-10-17T16:09:12.825Z,5.53
2022-10-17T16:11:42.513Z,9.32
2022-10-17T16:14:16.048Z,8.48
2022-10-17T16:16:45.251Z,9.52
2022-10-17T16:19:12.178Z,12.90
2022-10-17T16:21:41.176Z,8.57
2022-10-17T16:24:13.165Z,8.25
2022-10-17T16:26:40.299Z,7.90
2022-10-17T16:29:09.277Z,7.28
2022-10-17T16:31:39.511Z,7.80
2022-10-17T16:34:06.826Z,7.00
2022-10-17T16:36:33.788Z,8.85
2022-10-17T16:39:02.678Z,9.30
2022-10-17T16:41:31.984Z,11.85
2022-10-17T16:44:01.236Z,10.43
2022-10-17T16:46:32.329Z,8.98
2022-10-17T16:48:59.214Z,8.40
2022-10-17T16:51:29.250Z,6.93
2022-10-17T16:54:00.202Z,6.32
2022-10-17T16:56:32.507Z,11.65
2022-10-17T16:59:00.668Z,9.50
2022-10-17T17:01:31.549Z,10.02
2022-10-17T17:03:58.624Z,7.78
2022-10-17T17:06:29.086Z,9.38
2022-10-17T17:08:56.822Z,10.23
2022-10-17T17:11:25.588Z,10.32
2022-10-17T17:13:54.987Z,11.23
2022-10-17T17:16:23.643Z,9.15
2022-10-17T17:18:58.468Z,6.70
2022-10-17T17:21:27.061Z,8.50
2022-10-17T17:23:57.354Z,8.88
2022-10-17T17:26:25.430Z,7.45
2022-10-17T17:28:55.053Z,9.30
2022-10-17T17:31:26.483Z,10.85
2022-10-17T17:33:59.065Z,9.90
2022-10-17T17:36:33.276Z,10.50
2022-10-17T17:39:05.012Z,9.77
2022-10-17T17:41:34.813Z,12.95
2022-10-17T17:44:04.826Z,6.57
2022-10-17T17:46:34.991Z,8.80
2022-10-17T17:49:04.532Z,13.13
2022-10-17T17:51:34.718Z,14.38
2022-10-17T17:54:01.456Z,9.48
2022-10-17T17:56:30.625Z,11.18
2022-10-17T17:59:00.649Z,11.68
2022-10-17T18:01:35.129Z,9.80
2022-10-17T18:04:01.986Z,11.82
2022-10-17T18:06:29.101Z,11.20
2022-10-17T18:08:58.562Z,7.82
2022-10-17T18:11:27.354Z,7.65
2022-10-17T18:13:58.100Z,8.48
2022-10-17T18:16:28.853Z,9.50
2022-10-17T18:18:55.786Z,13.00
2022-10-17T18:21:22.715Z,10.65
2022-10-17T18:23:50.350Z,11.25
2022-10-17T18:26:20.147Z,11.63
2022-10-17T18:28:50.409Z,12.85
2022-10-17T18:31:21.958Z,13.13
2022-10-17T18:36:24.173Z,16.23
2022-10-17T18:38:53.086Z,15.45
2022-10-17T18:41:21.944Z,18.90
2022-10-17T18:43:52.236Z,13.70
2022-10-17T18:46:22.368Z,11.82
2022-10-17T18:48:50.015Z,11.82
2022-10-17T18:51:19.512Z,12.57
2022-10-17T18:53:48.968Z,13.30
2022-10-17T18:56:20.500Z,12.23
2022-10-17T19:01:21.854Z,13.77
2022-10-17T19:03:50.461Z,16.90
2022-10-17T19:06:22.649Z,17.63
2022-10-17T19:08:49.771Z,16.02
2022-10-17T19:11:31.604Z,11.52
2022-10-17T19:14:00.541Z,11.13
2022-10-17T19:16:34.621Z,12.75
2022-10-17T19:19:19.961Z,11.98
2022-10-17T19:21:47.303Z,13.75
2022-10-17T19:24:26.277Z,12.48
2022-10-17T19:26:55.362Z,14.98
2022-10-17T19:29:28.095Z,10.43
2022-10-17T19:34:22.502Z,13.45
2022-10-17T19:36:51.592Z,11.30
2022-10-17T19:39:22.707Z,14.25
2022-10-17T19:41:52.123Z,12.18
2022-10-17T19:44:19.278Z,12.55
2022-10-17T19:46:49.272Z,11.88
2022-10-17T19:49:16.707Z,11.38
2022-10-17T19:51:44.039Z,9.45
2022-10-17T19:54:15.067Z,14.43
2022-10-17T19:56:43.463Z,16.15
2022-10-17T19:59:13.364Z,15.18
2022-10-17T20:01:43.058Z,16.60
2022-10-17T20:04:11.012Z,14.38
2022-10-17T20:06:38.581Z,13.63
2022-10-17T20:09:07.376Z,18.55
2022-10-17T20:11:37.873Z,11.05
2022-10-17T20:14:06.828Z,14.32
2022-10-17T20:16:35.196Z,15.43
2022-10-17T20:19:08.741Z,14.18
2022-10-17T20:21:37.073Z,15.45
2022-10-17T20:24:06.512Z,13.80
2022-10-17T20:26:38.121Z,12.02
2022-10-17T20:29:10.694Z,20.55
2022-10-17T20:31:38.704Z,13.70
2022-10-17T20:34:06.062Z,17.75
2022-10-17T20:36:37.028Z,15.52
2022-10-17T20:39:05.190Z,15.50
2022-10-17T20:41:35.137Z,16.13
2022-10-17T20:44:02.282Z,17.20
2022-10-17T20:46:44.808Z,12.70
2022-10-17T20:49:17.702Z,15.20
2022-10-17T20:51:45.377Z,13.23
2022-10-17T20:54:12.727Z,11.15
2022-10-17T20:56:39.993Z,14.63
2022-10-17T20:59:10.983Z,16.73
2022-10-17T21:01:37.831Z,14.02
2022-10-17T21:06:52.186Z,12.13
2022-10-17T21:09:19.872Z,13.07
2022-10-17T21:11:46.682Z,14.45
2022-10-17T21:14:16.674Z,13.57
2022-10-17T21:16:43.622Z,14.23
2022-10-17T21:19:11.878Z,17.90
2022-10-17T21:21:45.914Z,16.35
2022-10-17T21:24:16.805Z,15.50
2022-10-17T21:26:45.614Z,20.10
2022-10-17T21:29:13.568Z,18.83
2022-10-17T21:31:42.736Z,15.68
2022-10-17T21:34:17.569Z,18.88
2022-10-17T21:36:45.141Z,17.35
2022-10-17T21:39:13.796Z,20.92
2022-10-17T21:41:41.286Z,16.65
2022-10-17T21:44:12.830Z,15.82
2022-10-17T21:49:06.811Z,15.60
2022-10-17T21:51:33.556Z,15.63
2022-10-17T21:54:04.496Z,15.18
2022-10-17T21:56:35.608Z,16.38
2022-10-17T21:59:03.381Z,19.25
2022-10-17T22:01:32.962Z,15.57
2022-10-17T22:04:05.515Z,16.65
2022-10-17T22:06:40.229Z,18.30
2022-10-17T22:09:29.258Z,14.45
2022-10-17T22:11:56.933Z,14.35
2022-10-17T22:14:25.789Z,22.02
2022-10-17T22:16:52.696Z,16.00
2022-10-17T22:19:23.349Z,18.30
2022-10-17T22:21:50.395Z,19.60
2022-10-17T22:24:18.939Z,19.05
2022-10-17T22:26:48.994Z,17.70
2022-10-17T22:29:16.660Z,24.45
2022-10-17T22:31:45.846Z,17.58
2022-10-17T22:34:17.898Z,20.98
2022-10-17T22:36:45.297Z,18.02
2022-10-17T22:39:12.098Z,15.00
2022-10-17T22:41:41.987Z,14.60
2022-10-17T22:44:08.750Z,14.13
2022-10-17T22:46:35.825Z,20.60
2022-10-17T22:49:02.935Z,21.90
2022-10-17T22:51:29.665Z,21.20
2022-10-17T22:53:56.484Z,16.70
2022-10-17T22:56:23.677Z,18.60
2022-10-17T22:58:51.026Z,18.15
2022-10-17T23:01:28.217Z,19.52
2022-10-17T23:03:57.129Z,17.67
2022-10-17T23:06:24.214Z,18.10
2022-10-17T23:08:53.610Z,16.10
2022-10-17T23:11:21.007Z,16.70
2022-10-17T23:13:47.816Z,13.10
2022-10-17T23:16:14.619Z,18.10
2022-10-17T23:18:44.122Z,16.48
2022-10-17T23:21:11.796Z,19.75
2022-10-17T23:23:39.001Z,16.45
2022-10-17T23:26:13.921Z,16.13
2022-10-17T23:28:41.685Z,14.23
2022-10-17T23:31:14.277Z,14.95
2022-10-17T23:33:41.740Z,15.30
2022-10-17T23:36:13.130Z,14.38
2022-10-17T23:38:41.932Z,16.95
2022-10-17T23:41:11.743Z,12.90
2022-10-17T23:43:40.769Z,15.82
2022-10-17T23:46:08.120Z,16.00
2022-10-17T23:48:35.516Z,14.55
2022-10-17T23:51:04.468Z,20.20
2022-10-17T23:53:33.858Z,16.08
2022-10-17T23:56:00.921Z,15.85
2022-10-17T23:58:30.249Z,13.20
